Startpagina
METAR-TAF:

METAR-TAF

Vliegvelden :

Internationale Luchthaven Cuneo

Cuneo, Italië

breedte: 44-32-47N, lengte: 007-37-20E, hoogte: 386 m

Actueel weer

Dit bericht is 36 minuten geleden gemaakt, om 14:51 UTC
Wind 21 kt uit het noordwesten
Temperatuur 10°C
Vochtigheid 16%
Druk 1002 hPa
Zicht 10 km of meer
geen wolken onder 1500 m en geen cumulonimbus

METAR: LIMZ 261451Z 31021KT CAVOK 10/M15 Q1002

Tijdstip: 16:27 (15:27 UTC)

Verwachting

Dit bericht is 4 uur en het 27 minuten geleden gemaakt, om 11:00 UTC
Verwachting geldig van 26 om 12 UTC tot 27 om 12 UTC
Wind 12 kt uit het westnoordwesten
Zicht 10 km of meer
geen wolken onder 1500 m en geen cumulonimbus
Tijdelijke
van 26 om 12 UTC tot 26 om 18 UTC
Wind 15 kt uit het westnoordwesten met uitschieters tot 25 kt
Wijzigt naar
van 26 om 20 UTC tot 26 om 22 UTC
Wind 5 kt uit variabele richting

TAF: LIMZ 261100Z 2612/2712 30012KT CAVOK TEMPO 2612/2618 30015G25KT BECMG 2620/2622 VRB05KT

Waarnemingen en weersverwachtingen van meer dan 4000 vliegvelden (METAR en TAF).

De beschikbare stations zijn de gele en rode punten op de kaart.

Ga met uw muis naar het station om de naam te zien.

Klik dan om waarnemingen en weersverwachtingen te zien.

kaart wijzigen: klik op de groene knoppen met een zwart kruis om in te zoomen, op de groene knop met een streepje om uit te zoomen of op de groene pijlen voor aangrenzende kaarten.


METAR-TAF: